sensor_id;sensor_type;location;lat;lon;timestamp;pressure;altitude;pressure_sealevel;temperature;humidity
33697;BME280;20031;43.416;23.232;2023-07-29T00:00:46;99681.88;;;21.11;63.09
33697;BME280;20031;43.416;23.232;2023-07-29T00:03:12;99685.00;;;21.08;63.84
33697;BME280;20031;43.416;23.232;2023-07-29T00:05:38;99680.50;;;21.09;63.91
33697;BME280;20031;43.416;23.232;2023-07-29T00:08:04;99688.78;;;21.12;63.19
33697;BME280;20031;43.416;23.232;2023-07-29T00:10:31;99681.69;;;21.01;63.50
33697;BME280;20031;43.416;23.232;2023-07-29T00:12:57;99683.84;;;21.04;62.11
33697;BME280;20031;43.416;23.232;2023-07-29T00:15:22;99680.16;;;21.05;60.98
33697;BME280;20031;43.416;23.232;2023-07-29T00:17:48;99688.25;;;21.10;60.76
33697;BME280;20031;43.416;23.232;2023-07-29T00:20:13;99692.00;;;21.14;60.18
33697;BME280;20031;43.416;23.232;2023-07-29T00:22:39;99684.53;;;21.11;59.94
33697;BME280;20031;43.416;23.232;2023-07-29T00:25:04;99690.69;;;20.89;61.77
33697;BME280;20031;43.416;23.232;2023-07-29T00:27:30;99696.44;;;20.75;62.80
33697;BME280;20031;43.416;23.232;2023-07-29T00:29:55;99686.53;;;20.59;63.80
33697;BME280;20031;43.416;23.232;2023-07-29T00:32:21;99685.38;;;20.44;65.24
33697;BME280;20031;43.416;23.232;2023-07-29T00:34:46;99688.84;;;20.33;66.37
33697;BME280;20031;43.416;23.232;2023-07-29T00:37:11;99695.50;;;20.35;66.52
33697;BME280;20031;43.416;23.232;2023-07-29T00:39:37;99706.09;;;20.35;66.33
33697;BME280;20031;43.416;23.232;2023-07-29T00:42:03;99701.16;;;20.27;66.49
33697;BME280;20031;43.416;23.232;2023-07-29T00:44:29;99701.47;;;20.19;67.14
33697;BME280;20031;43.416;23.232;2023-07-29T00:46:57;99697.00;;;20.20;67.60
33697;BME280;20031;43.416;23.232;2023-07-29T00:49:23;99698.03;;;20.19;67.49
33697;BME280;20031;43.416;23.232;2023-07-29T00:51:49;99692.38;;;20.15;68.33
33697;BME280;20031;43.416;23.232;2023-07-29T00:54:14;99696.19;;;20.19;68.18
33697;BME280;20031;43.416;23.232;2023-07-29T00:56:40;99693.00;;;20.29;68.22
33697;BME280;20031;43.416;23.232;2023-07-29T00:59:07;99694.16;;;20.33;67.39
33697;BME280;20031;43.416;23.232;2023-07-29T01:01:33;99695.63;;;20.29;67.38
33697;BME280;20031;43.416;23.232;2023-07-29T01:03:58;99697.59;;;20.33;66.20
33697;BME280;20031;43.416;23.232;2023-07-29T01:09:33;99705.59;;;20.15;66.82
33697;BME280;20031;43.416;23.232;2023-07-29T01:17:27;99685.47;;;19.92;68.12
33697;BME280;20031;43.416;23.232;2023-07-29T01:22:21;99687.94;;;19.87;68.12
33697;BME280;20031;43.416;23.232;2023-07-29T01:24:46;99682.53;;;19.82;68.18
33697;BME280;20031;43.416;23.232;2023-07-29T01:27:12;99682.28;;;19.72;67.89
33697;BME280;20031;43.416;23.232;2023-07-29T01:29:37;99690.50;;;19.64;68.32
33697;BME280;20031;43.416;23.232;2023-07-29T01:32:17;99682.56;;;19.52;68.82
33697;BME280;20031;43.416;23.232;2023-07-29T01:34:59;99684.41;;;19.52;69.05
33697;BME280;20031;43.416;23.232;2023-07-29T01:37:26;99687.75;;;19.59;69.34
33697;BME280;20031;43.416;23.232;2023-07-29T01:39:57;99674.66;;;19.64;69.22
33697;BME280;20031;43.416;23.232;2023-07-29T01:42:24;99684.78;;;19.67;69.11
33697;BME280;20031;43.416;23.232;2023-07-29T01:44:51;99682.94;;;19.67;68.62
33697;BME280;20031;43.416;23.232;2023-07-29T01:47:16;99687.78;;;19.70;68.73
33697;BME280;20031;43.416;23.232;2023-07-29T01:49:42;99678.13;;;19.76;69.06
33697;BME280;20031;43.416;23.232;2023-07-29T01:52:07;99670.56;;;19.79;68.93
33697;BME280;20031;43.416;23.232;2023-07-29T01:54:32;99680.69;;;19.82;68.36
33697;BME280;20031;43.416;23.232;2023-07-29T01:56:58;99691.22;;;19.89;68.43
33697;BME280;20031;43.416;23.232;2023-07-29T01:59:23;99692.47;;;19.98;67.37
33697;BME280;20031;43.416;23.232;2023-07-29T02:01:49;99689.38;;;20.00;66.65
33697;BME280;20031;43.416;23.232;2023-07-29T02:04:14;99686.84;;;20.05;65.92
33697;BME280;20031;43.416;23.232;2023-07-29T02:06:40;99686.63;;;20.07;64.71
33697;BME280;20031;43.416;23.232;2023-07-29T02:09:05;99677.19;;;20.11;64.55
33697;BME280;20031;43.416;23.232;2023-07-29T02:11:31;99683.44;;;20.16;63.90
33697;BME280;20031;43.416;23.232;2023-07-29T02:13:56;99674.69;;;20.16;64.00
33697;BME280;20031;43.416;23.232;2023-07-29T02:16:22;99673.44;;;20.18;63.69
33697;BME280;20031;43.416;23.232;2023-07-29T02:18:49;99676.50;;;20.15;63.94
33697;BME280;20031;43.416;23.232;2023-07-29T02:21:17;99685.50;;;20.14;63.85
33697;BME280;20031;43.416;23.232;2023-07-29T02:23:43;99685.50;;;20.14;63.87
33697;BME280;20031;43.416;23.232;2023-07-29T02:26:08;99689.63;;;20.10;63.43
33697;BME280;20031;43.416;23.232;2023-07-29T02:28:33;99691.31;;;19.94;63.99
33697;BME280;20031;43.416;23.232;2023-07-29T02:33:40;99692.00;;;19.60;66.11
33697;BME280;20031;43.416;23.232;2023-07-29T02:36:05;99696.66;;;19.46;66.83
33697;BME280;20031;43.416;23.232;2023-07-29T02:38:30;99701.06;;;19.35;67.79
33697;BME280;20031;43.416;23.232;2023-07-29T02:40:56;99700.38;;;19.28;68.54
33697;BME280;20031;43.416;23.232;2023-07-29T02:43:21;99700.16;;;19.29;69.00
33697;BME280;20031;43.416;23.232;2023-07-29T02:45:47;99697.63;;;19.34;68.71
33697;BME280;20031;43.416;23.232;2023-07-29T02:48:12;99697.78;;;19.39;68.87
33697;BME280;20031;43.416;23.232;2023-07-29T02:50:37;99696.28;;;19.43;68.44
33697;BME280;20031;43.416;23.232;2023-07-29T02:53:03;99694.47;;;19.44;69.05
33697;BME280;20031;43.416;23.232;2023-07-29T02:55:28;99699.16;;;19.42;68.34
33697;BME280;20031;43.416;23.232;2023-07-29T02:57:54;99702.63;;;19.42;69.09
33697;BME280;20031;43.416;23.232;2023-07-29T03:00:19;99703.19;;;19.44;68.34
33697;BME280;20031;43.416;23.232;2023-07-29T03:02:44;99699.88;;;19.48;68.50
33697;BME280;20031;43.416;23.232;2023-07-29T03:05:10;99700.25;;;19.52;67.50
33697;BME280;20031;43.416;23.232;2023-07-29T03:07:35;99701.72;;;19.48;67.98
33697;BME280;20031;43.416;23.232;2023-07-29T03:10:01;99704.13;;;19.49;68.17
33697;BME280;20031;43.416;23.232;2023-07-29T03:12:26;99701.22;;;19.40;67.79
33697;BME280;20031;43.416;23.232;2023-07-29T03:14:52;99706.91;;;19.25;67.85
33697;BME280;20031;43.416;23.232;2023-07-29T03:17:17;99713.94;;;19.13;68.78
33697;BME280;20031;43.416;23.232;2023-07-29T03:19:43;99705.28;;;19.06;69.24
33697;BME280;20031;43.416;23.232;2023-07-29T03:22:08;99717.28;;;19.02;69.08
33697;BME280;20031;43.416;23.232;2023-07-29T03:24:34;99710.25;;;18.96;69.11
33697;BME280;20031;43.416;23.232;2023-07-29T03:26:59;99711.72;;;18.92;69.80
33697;BME280;20031;43.416;23.232;2023-07-29T03:29:24;99717.06;;;18.86;70.02
33697;BME280;20031;43.416;23.232;2023-07-29T03:31:50;99717.38;;;18.78;70.08
33697;BME280;20031;43.416;23.232;2023-07-29T03:34:15;99721.25;;;18.76;70.29
33697;BME280;20031;43.416;23.232;2023-07-29T03:36:41;99720.22;;;18.77;70.98
33697;BME280;20031;43.416;23.232;2023-07-29T03:39:06;99719.56;;;18.81;70.70
33697;BME280;20031;43.416;23.232;2023-07-29T03:41:32;99725.59;;;18.88;70.52
33697;BME280;20031;43.416;23.232;2023-07-29T03:43:58;99723.59;;;19.01;70.90
33697;BME280;20031;43.416;23.232;2023-07-29T03:46:24;99724.19;;;19.21;70.70
33697;BME280;20031;43.416;23.232;2023-07-29T03:48:50;99724.03;;;19.34;69.74
33697;BME280;20031;43.416;23.232;2023-07-29T03:51:15;99724.81;;;19.52;69.31
33697;BME280;20031;43.416;23.232;2023-07-29T03:53:40;99718.84;;;19.75;68.90
33697;BME280;20031;43.416;23.232;2023-07-29T03:56:07;99720.41;;;19.94;67.24
33697;BME280;20031;43.416;23.232;2023-07-29T03:58:33;99718.50;;;20.12;66.22
33697;BME280;20031;43.416;23.232;2023-07-29T04:00:58;99713.13;;;20.18;65.85
33697;BME280;20031;43.416;23.232;2023-07-29T04:03:24;99717.03;;;20.27;65.07
33697;BME280;20031;43.416;23.232;2023-07-29T04:05:49;99714.94;;;20.29;65.06
33697;BME280;20031;43.416;23.232;2023-07-29T04:08:15;99718.66;;;20.40;65.10
33697;BME280;20031;43.416;23.232;2023-07-29T04:10:40;99716.56;;;20.42;64.93
33697;BME280;20031;43.416;23.232;2023-07-29T04:13:06;99716.00;;;20.51;64.40
33697;BME280;20031;43.416;23.232;2023-07-29T04:15:31;99713.25;;;20.69;63.43
33697;BME280;20031;43.416;23.232;2023-07-29T04:17:57;99709.44;;;20.88;62.58
33697;BME280;20031;43.416;23.232;2023-07-29T04:20:22;99719.91;;;21.05;61.49
33697;BME280;20031;43.416;23.232;2023-07-29T04:22:48;99718.72;;;21.13;60.49
33697;BME280;20031;43.416;23.232;2023-07-29T04:25:13;99715.81;;;21.26;59.77
33697;BME280;20031;43.416;23.232;2023-07-29T04:27:39;99717.06;;;21.35;59.08
33697;BME280;20031;43.416;23.232;2023-07-29T04:30:05;99718.31;;;21.44;58.89
33697;BME280;20031;43.416;23.232;2023-07-29T04:32:30;99714.03;;;21.54;57.46
33697;BME280;20031;43.416;23.232;2023-07-29T04:34:56;99723.31;;;21.68;57.57
33697;BME280;20031;43.416;23.232;2023-07-29T04:37:21;99713.59;;;21.73;56.68
33697;BME280;20031;43.416;23.232;2023-07-29T04:39:47;99726.25;;;21.83;56.49
33697;BME280;20031;43.416;23.232;2023-07-29T04:42:12;99720.66;;;21.96;55.81
33697;BME280;20031;43.416;23.232;2023-07-29T04:44:37;99726.19;;;22.10;55.90
33697;BME280;20031;43.416;23.232;2023-07-29T04:47:03;99719.19;;;22.21;55.89
33697;BME280;20031;43.416;23.232;2023-07-29T04:49:29;99723.41;;;22.33;55.54
33697;BME280;20031;43.416;23.232;2023-07-29T04:51:54;99718.03;;;22.45;55.22
33697;BME280;20031;43.416;23.232;2023-07-29T04:54:19;99718.84;;;22.45;55.12
33697;BME280;20031;43.416;23.232;2023-07-29T04:56:46;99727.13;;;22.65;54.49
33697;BME280;20031;43.416;23.232;2023-07-29T04:59:12;99736.81;;;22.76;54.10
33697;BME280;20031;43.416;23.232;2023-07-29T05:01:38;99734.16;;;22.76;54.13
33697;BME280;20031;43.416;23.232;2023-07-29T05:04:04;99734.16;;;22.76;53.68
33697;BME280;20031;43.416;23.232;2023-07-29T05:06:29;99736.56;;;22.77;53.89
33697;BME280;20031;43.416;23.232;2023-07-29T05:08:57;99740.59;;;22.80;53.98
33697;BME280;20031;43.416;23.232;2023-07-29T05:11:22;99741.78;;;22.89;54.11
33697;BME280;20031;43.416;23.232;2023-07-29T05:13:50;99742.38;;;22.91;55.86
33697;BME280;20031;43.416;23.232;2023-07-29T05:16:15;99739.06;;;22.84;56.50
33697;BME280;20031;43.416;23.232;2023-07-29T05:18:41;99739.47;;;22.76;56.83
33697;BME280;20031;43.416;23.232;2023-07-29T05:21:06;99740.34;;;22.81;56.94
33697;BME280;20031;43.416;23.232;2023-07-29T05:23:33;99743.50;;;22.95;56.73
33697;BME280;20031;43.416;23.232;2023-07-29T05:25:59;99739.38;;;23.04;56.90
33697;BME280;20031;43.416;23.232;2023-07-29T05:28:24;99739.06;;;23.21;57.19
33697;BME280;20031;43.416;23.232;2023-07-29T05:30:50;99737.34;;;23.32;56.84
33697;BME280;20031;43.416;23.232;2023-07-29T05:33:15;99741.94;;;23.36;56.47
33697;BME280;20031;43.416;23.232;2023-07-29T05:35:41;99745.13;;;23.38;56.65
33697;BME280;20031;43.416;23.232;2023-07-29T05:38:06;99752.06;;;23.39;56.59
33697;BME280;20031;43.416;23.232;2023-07-29T05:40:33;99750.66;;;23.53;56.90
33697;BME280;20031;43.416;23.232;2023-07-29T05:42:59;99744.41;;;23.64;56.09
33697;BME280;20031;43.416;23.232;2023-07-29T05:45:24;99757.59;;;23.75;55.21
33697;BME280;20031;43.416;23.232;2023-07-29T05:47:50;99752.84;;;23.82;54.91
33697;BME280;20031;43.416;23.232;2023-07-29T05:50:15;99758.16;;;23.82;54.87
33697;BME280;20031;43.416;23.232;2023-07-29T05:52:41;99760.72;;;23.94;54.23
33697;BME280;20031;43.416;23.232;2023-07-29T05:55:07;99757.88;;;24.05;53.76
33697;BME280;20031;43.416;23.232;2023-07-29T05:57:32;99755.06;;;24.16;53.23
33697;BME280;20031;43.416;23.232;2023-07-29T05:59:58;99761.66;;;24.35;52.46
33697;BME280;20031;43.416;23.232;2023-07-29T06:02:23;99757.75;;;24.48;51.33
33697;BME280;20031;43.416;23.232;2023-07-29T06:04:49;99760.75;;;24.56;50.24
33697;BME280;20031;43.416;23.232;2023-07-29T06:07:14;99765.59;;;24.64;49.75
33697;BME280;20031;43.416;23.232;2023-07-29T06:09:40;99767.03;;;24.81;50.16
33697;BME280;20031;43.416;23.232;2023-07-29T06:12:05;99767.69;;;24.93;50.07
33697;BME280;20031;43.416;23.232;2023-07-29T06:14:31;99762.72;;;25.07;49.85
33697;BME280;20031;43.416;23.232;2023-07-29T06:16:56;99759.56;;;25.19;50.28
33697;BME280;20031;43.416;23.232;2023-07-29T06:19:22;99764.91;;;25.19;50.33
33697;BME280;20031;43.416;23.232;2023-07-29T06:21:48;99763.41;;;25.38;50.38
33697;BME280;20031;43.416;23.232;2023-07-29T06:24:13;99764.25;;;25.54;50.24
33697;BME280;20031;43.416;23.232;2023-07-29T06:26:39;99753.41;;;25.70;50.27
33697;BME280;20031;43.416;23.232;2023-07-29T06:29:04;99755.03;;;25.76;50.03
33697;BME280;20031;43.416;23.232;2023-07-29T06:31:30;99753.97;;;25.92;49.92
33697;BME280;20031;43.416;23.232;2023-07-29T06:33:55;99756.94;;;25.95;49.50
33697;BME280;20031;43.416;23.232;2023-07-29T06:36:21;99757.75;;;26.16;50.21
33697;BME280;20031;43.416;23.232;2023-07-29T06:38:46;99744.97;;;26.27;50.08
33697;BME280;20031;43.416;23.232;2023-07-29T06:41:12;99743.41;;;26.36;49.41
33697;BME280;20031;43.416;23.232;2023-07-29T06:43:37;99748.19;;;26.44;48.91
33697;BME280;20031;43.416;23.232;2023-07-29T06:46:03;99740.44;;;26.58;48.71
33697;BME280;20031;43.416;23.232;2023-07-29T06:48:28;99744.94;;;26.82;48.94
33697;BME280;20031;43.416;23.232;2023-07-29T06:50:54;99738.78;;;26.96;47.98
33697;BME280;20031;43.416;23.232;2023-07-29T06:53:20;99736.94;;;26.92;47.58
33697;BME280;20031;43.416;23.232;2023-07-29T06:55:46;99744.13;;;26.96;47.38
33697;BME280;20031;43.416;23.232;2023-07-29T06:58:12;99745.16;;;27.15;47.53
33697;BME280;20031;43.416;23.232;2023-07-29T07:00:37;99739.22;;;27.33;47.30
33697;BME280;20031;43.416;23.232;2023-07-29T07:03:02;99745.31;;;27.43;46.73
33697;BME280;20031;43.416;23.232;2023-07-29T07:05:28;99748.03;;;27.38;46.58
33697;BME280;20031;43.416;23.232;2023-07-29T07:07:53;99739.69;;;27.45;46.44
33697;BME280;20031;43.416;23.232;2023-07-29T07:10:19;99736.94;;;27.65;46.46
33697;BME280;20031;43.416;23.232;2023-07-29T07:12:45;99742.34;;;27.60;46.09
33697;BME280;20031;43.416;23.232;2023-07-29T07:15:10;99737.88;;;27.88;46.68
33697;BME280;20031;43.416;23.232;2023-07-29T07:17:35;99731.41;;;27.94;46.04
33697;BME280;20031;43.416;23.232;2023-07-29T07:20:01;99738.06;;;28.02;45.73
33697;BME280;20031;43.416;23.232;2023-07-29T07:22:26;99724.50;;;28.27;45.99
33697;BME280;20031;43.416;23.232;2023-07-29T07:24:52;99728.91;;;28.46;45.54
33697;BME280;20031;43.416;23.232;2023-07-29T07:27:17;99730.56;;;28.65;45.25
33697;BME280;20031;43.416;23.232;2023-07-29T07:29:43;99733.44;;;28.79;44.30
33697;BME280;20031;43.416;23.232;2023-07-29T07:32:08;99729.66;;;28.80;42.82
33697;BME280;20031;43.416;23.232;2023-07-29T07:34:33;99735.16;;;28.93;42.87
33697;BME280;20031;43.416;23.232;2023-07-29T07:36:59;99732.19;;;28.94;42.89
33697;BME280;20031;43.416;23.232;2023-07-29T07:39:25;99733.91;;;29.09;42.92
33697;BME280;20031;43.416;23.232;2023-07-29T07:41:51;99728.91;;;29.26;42.97
33697;BME280;20031;43.416;23.232;2023-07-29T07:44:16;99724.31;;;29.49;43.35
33697;BME280;20031;43.416;23.232;2023-07-29T07:46:43;99720.66;;;29.82;42.94
33697;BME280;20031;43.416;23.232;2023-07-29T07:49:09;99729.59;;;29.96;42.98
33697;BME280;20031;43.416;23.232;2023-07-29T07:51:34;99729.06;;;29.94;41.91
33697;BME280;20031;43.416;23.232;2023-07-29T07:54:00;99720.22;;;29.93;40.94
33697;BME280;20031;43.416;23.232;2023-07-29T07:56:25;99729.28;;;29.97;41.18
33697;BME280;20031;43.416;23.232;2023-07-29T07:58:51;99725.00;;;29.96;40.29
33697;BME280;20031;43.416;23.232;2023-07-29T08:01:16;99727.66;;;30.15;40.60
33697;BME280;20031;43.416;23.232;2023-07-29T08:03:42;99712.41;;;30.29;40.30
33697;BME280;20031;43.416;23.232;2023-07-29T08:06:07;99721.34;;;30.42;39.13
33697;BME280;20031;43.416;23.232;2023-07-29T08:08:32;99706.28;;;30.42;40.57
33697;BME280;20031;43.416;23.232;2023-07-29T08:10:58;99714.13;;;30.70;40.10
33697;BME280;20031;43.416;23.232;2023-07-29T08:13:24;99714.13;;;30.83;38.91
33697;BME280;20031;43.416;23.232;2023-07-29T08:15:51;99707.97;;;30.96;39.11
33697;BME280;20031;43.416;23.232;2023-07-29T08:18:17;99709.78;;;31.14;37.59
33697;BME280;20031;43.416;23.232;2023-07-29T08:20:57;99711.78;;;31.08;37.10
33697;BME280;20031;43.416;23.232;2023-07-29T08:23:24;99710.06;;;31.26;37.30
33697;BME280;20031;43.416;23.232;2023-07-29T08:25:54;99701.09;;;31.44;38.13
33697;BME280;20031;43.416;23.232;2023-07-29T08:28:24;99701.75;;;31.62;37.56
33697;BME280;20031;43.416;23.232;2023-07-29T08:30:49;99701.88;;;31.57;36.20
33697;BME280;20031;43.416;23.232;2023-07-29T08:33:15;99690.22;;;31.48;35.26
33697;BME280;20031;43.416;23.232;2023-07-29T08:35:40;99695.59;;;31.48;35.64
33697;BME280;20031;43.416;23.232;2023-07-29T08:38:06;99680.97;;;31.76;36.33
33697;BME280;20031;43.416;23.232;2023-07-29T08:40:32;99686.97;;;32.08;34.78
33697;BME280;20031;43.416;23.232;2023-07-29T08:43:03;99684.03;;;32.18;34.47
33697;BME280;20031;43.416;23.232;2023-07-29T08:45:30;99675.53;;;32.33;33.67
33697;BME280;20031;43.416;23.232;2023-07-29T08:47:58;99679.00;;;32.25;33.42
33697;BME280;20031;43.416;23.232;2023-07-29T08:50:24;99676.94;;;32.31;33.48
33697;BME280;20031;43.416;23.232;2023-07-29T08:52:52;99676.69;;;32.62;33.61
33697;BME280;20031;43.416;23.232;2023-07-29T08:55:18;99670.16;;;32.63;32.33
33697;BME280;20031;43.416;23.232;2023-07-29T08:57:44;99676.53;;;32.67;32.13
33697;BME280;20031;43.416;23.232;2023-07-29T09:00:11;99675.97;;;32.87;32.28
33697;BME280;20031;43.416;23.232;2023-07-29T09:02:38;99674.69;;;33.15;31.39
33697;BME280;20031;43.416;23.232;2023-07-29T09:05:03;99677.88;;;33.34;30.75
33697;BME280;20031;43.416;23.232;2023-07-29T09:07:30;99675.88;;;33.48;29.12
33697;BME280;20031;43.416;23.232;2023-07-29T09:09:56;99673.31;;;33.51;27.42
33697;BME280;20031;43.416;23.232;2023-07-29T09:12:22;99668.75;;;33.52;27.09
33697;BME280;20031;43.416;23.232;2023-07-29T09:14:51;99664.75;;;33.74;27.42
33697;BME280;20031;43.416;23.232;2023-07-29T09:17:18;99668.91;;;33.80;28.35
33697;BME280;20031;43.416;23.232;2023-07-29T09:19:50;99676.38;;;33.66;27.52
33697;BME280;20031;43.416;23.232;2023-07-29T09:22:22;99670.31;;;33.78;28.18
33697;BME280;20031;43.416;23.232;2023-07-29T09:24:47;99669.56;;;33.94;28.09
33697;BME280;20031;43.416;23.232;2023-07-29T09:27:28;99674.97;;;33.94;28.43
33697;BME280;20031;43.416;23.232;2023-07-29T09:29:57;99669.69;;;34.14;27.83
33697;BME280;20031;43.416;23.232;2023-07-29T09:32:24;99668.56;;;34.15;27.76
33697;BME280;20031;43.416;23.232;2023-07-29T09:34:51;99667.00;;;34.06;28.51
33697;BME280;20031;43.416;23.232;2023-07-29T09:37:25;99665.69;;;34.12;28.19
33697;BME280;20031;43.416;23.232;2023-07-29T09:39:51;99658.53;;;34.16;28.01
33697;BME280;20031;43.416;23.232;2023-07-29T09:42:21;99656.94;;;34.07;27.31
33697;BME280;20031;43.416;23.232;2023-07-29T09:44:49;99654.50;;;34.39;28.17
33697;BME280;20031;43.416;23.232;2023-07-29T09:47:25;99656.06;;;34.57;28.90
33697;BME280;20031;43.416;23.232;2023-07-29T09:49:51;99650.34;;;34.95;28.35
33697;BME280;20031;43.416;23.232;2023-07-29T09:52:18;99647.84;;;34.90;27.04
33697;BME280;20031;43.416;23.232;2023-07-29T09:54:44;99642.09;;;34.83;27.32
33697;BME280;20031;43.416;23.232;2023-07-29T09:57:14;99643.09;;;34.79;26.64
33697;BME280;20031;43.416;23.232;2023-07-29T09:59:40;99649.31;;;34.71;27.13
33697;BME280;20031;43.416;23.232;2023-07-29T10:02:15;99638.47;;;35.08;27.20
33697;BME280;20031;43.416;23.232;2023-07-29T10:04:42;99640.44;;;35.28;27.10
33697;BME280;20031;43.416;23.232;2023-07-29T10:07:09;99635.69;;;35.45;27.16
33697;BME280;20031;43.416;23.232;2023-07-29T10:09:37;99623.28;;;35.65;27.15
33697;BME280;20031;43.416;23.232;2023-07-29T10:12:05;99625.88;;;35.61;27.08
33697;BME280;20031;43.416;23.232;2023-07-29T10:14:31;99618.44;;;35.90;26.63
33697;BME280;20031;43.416;23.232;2023-07-29T10:16:57;99619.28;;;35.82;26.54
33697;BME280;20031;43.416;23.232;2023-07-29T10:19:24;99622.31;;;36.01;26.94
33697;BME280;20031;43.416;23.232;2023-07-29T10:21:51;99612.84;;;36.19;26.43
33697;BME280;20031;43.416;23.232;2023-07-29T10:24:19;99618.59;;;36.50;26.92
33697;BME280;20031;43.416;23.232;2023-07-29T10:26:49;99609.66;;;36.49;26.91
33697;BME280;20031;43.416;23.232;2023-07-29T10:29:19;99615.19;;;36.41;26.85
33697;BME280;20031;43.416;23.232;2023-07-29T10:31:45;99609.09;;;36.44;26.93
33697;BME280;20031;43.416;23.232;2023-07-29T10:34:12;99603.66;;;36.44;27.36
33697;BME280;20031;43.416;23.232;2023-07-29T10:36:38;99606.78;;;36.22;27.17
33697;BME280;20031;43.416;23.232;2023-07-29T10:39:06;99593.56;;;35.88;26.92
33697;BME280;20031;43.416;23.232;2023-07-29T10:41:58;99591.53;;;35.45;27.36
33697;BME280;20031;43.416;23.232;2023-07-29T10:49:48;99591.78;;;35.72;28.12
33697;BME280;20031;43.416;23.232;2023-07-29T10:52:15;99589.66;;;35.77;28.12
33697;BME280;20031;43.416;23.232;2023-07-29T10:54:46;99591.59;;;35.57;28.67
33697;BME280;20031;43.416;23.232;2023-07-29T10:57:19;99598.22;;;35.79;29.47
33697;BME280;20031;43.416;23.232;2023-07-29T10:59:56;99591.50;;;35.65;29.18
33697;BME280;20031;43.416;23.232;2023-07-29T11:02:28;99600.09;;;35.26;29.13
33697;BME280;20031;43.416;23.232;2023-07-29T11:04:54;99595.31;;;34.74;29.15
33697;BME280;20031;43.416;23.232;2023-07-29T11:07:21;99595.63;;;34.73;29.74
33697;BME280;20031;43.416;23.232;2023-07-29T11:12:36;99589.88;;;34.74;30.32
33697;BME280;20031;43.416;23.232;2023-07-29T11:20:07;99583.25;;;35.62;28.73
33697;BME280;20031;43.416;23.232;2023-07-29T11:22:33;99581.78;;;36.28;28.70
33697;BME280;20031;43.416;23.232;2023-07-29T11:24:59;99584.66;;;36.56;27.80
33697;BME280;20031;43.416;23.232;2023-07-29T11:27:24;99579.22;;;36.56;27.23
33697;BME280;20031;43.416;23.232;2023-07-29T11:29:50;99577.78;;;36.82;27.40
33697;BME280;20031;43.416;23.232;2023-07-29T11:32:16;99574.91;;;37.02;27.34
33697;BME280;20031;43.416;23.232;2023-07-29T11:34:42;99575.13;;;37.21;26.92
33697;BME280;20031;43.416;23.232;2023-07-29T11:37:10;99580.66;;;37.25;25.71
33697;BME280;20031;43.416;23.232;2023-07-29T11:39:44;99574.75;;;37.34;26.03
33697;BME280;20031;43.416;23.232;2023-07-29T11:42:14;99571.41;;;37.53;26.29
33697;BME280;20031;43.416;23.232;2023-07-29T11:44:40;99577.88;;;37.48;25.97
33697;BME280;20031;43.416;23.232;2023-07-29T11:47:07;99568.81;;;37.44;25.88
33697;BME280;20031;43.416;23.232;2023-07-29T11:49:33;99572.19;;;37.53;26.70
33697;BME280;20031;43.416;23.232;2023-07-29T11:51:59;99579.31;;;37.07;26.40
33697;BME280;20031;43.416;23.232;2023-07-29T11:54:25;99575.16;;;36.62;25.90
33697;BME280;20031;43.416;23.232;2023-07-29T11:56:51;99567.91;;;36.30;26.51
33697;BME280;20031;43.416;23.232;2023-07-29T11:59:16;99562.06;;;36.08;26.71
33697;BME280;20031;43.416;23.232;2023-07-29T12:01:42;99564.00;;;36.19;27.39
33697;BME280;20031;43.416;23.232;2023-07-29T12:04:07;99557.63;;;35.91;27.24
33697;BME280;20031;43.416;23.232;2023-07-29T12:06:33;99562.94;;;35.67;27.70
33697;BME280;20031;43.416;23.232;2023-07-29T12:09:00;99556.31;;;35.77;27.56
33697;BME280;20031;43.416;23.232;2023-07-29T12:11:25;99559.47;;;35.79;27.56
33697;BME280;20031;43.416;23.232;2023-07-29T12:13:53;99559.38;;;35.75;27.39
33697;BME280;20031;43.416;23.232;2023-07-29T12:16:18;99560.44;;;36.39;27.38
33697;BME280;20031;43.416;23.232;2023-07-29T12:18:44;99568.22;;;37.00;27.34
33697;BME280;20031;43.416;23.232;2023-07-29T12:21:10;99560.88;;;37.51;26.07
33697;BME280;20031;43.416;23.232;2023-07-29T12:23:35;99557.78;;;37.65;25.16
33697;BME280;20031;43.416;23.232;2023-07-29T12:26:01;99567.94;;;37.68;25.58
33697;BME280;20031;43.416;23.232;2023-07-29T12:28:26;99553.50;;;37.13;26.00
33697;BME280;20031;43.416;23.232;2023-07-29T12:30:56;99562.88;;;37.15;26.16
33697;BME280;20031;43.416;23.232;2023-07-29T12:33:32;99556.84;;;37.33;26.55
33697;BME280;20031;43.416;23.232;2023-07-29T12:35:58;99557.50;;;37.42;25.02
33697;BME280;20031;43.416;23.232;2023-07-29T12:38:27;99558.81;;;37.21;24.63
33697;BME280;20031;43.416;23.232;2023-07-29T12:40:53;99548.00;;;36.73;25.32
33697;BME280;20031;43.416;23.232;2023-07-29T12:43:18;99554.59;;;36.84;25.28
33697;BME280;20031;43.416;23.232;2023-07-29T12:45:44;99545.88;;;37.18;25.85
33697;BME280;20031;43.416;23.232;2023-07-29T12:48:10;99543.47;;;37.68;24.91
33697;BME280;20031;43.416;23.232;2023-07-29T12:50:36;99535.78;;;37.70;24.54
33697;BME280;20031;43.416;23.232;2023-07-29T12:53:02;99542.69;;;37.40;24.52
33697;BME280;20031;43.416;23.232;2023-07-29T12:55:28;99538.84;;;37.29;24.51
33697;BME280;20031;43.416;23.232;2023-07-29T12:57:53;99538.63;;;37.34;24.50
33697;BME280;20031;43.416;23.232;2023-07-29T13:00:18;99545.59;;;37.47;25.10
33697;BME280;20031;43.416;23.232;2023-07-29T13:02:44;99546.28;;;37.44;24.82
33697;BME280;20031;43.416;23.232;2023-07-29T13:05:10;99538.78;;;37.53;24.96
33697;BME280;20031;43.416;23.232;2023-07-29T13:07:39;99540.75;;;37.68;24.67
33697;BME280;20031;43.416;23.232;2023-07-29T13:10:05;99541.22;;;37.70;24.97
33697;BME280;20031;43.416;23.232;2023-07-29T13:12:32;99542.38;;;37.84;24.98